sensor_id;sensor_type;location;lat;lon;timestamp;pressure;altitude;pressure_sealevel;temperature
74043;BMP280;62384;53.600;10.040;2023-02-12T00:01:52;48406.84;;;8.13
74043;BMP280;62384;53.600;10.040;2023-02-12T00:04:17;48329.34;;;8.11
74043;BMP280;62384;53.600;10.040;2023-02-12T00:06:42;48226.59;;;8.11
74043;BMP280;62384;53.600;10.040;2023-02-12T00:09:08;48085.75;;;8.08
74043;BMP280;62384;53.600;10.040;2023-02-12T00:11:33;48044.22;;;8.13
74043;BMP280;62384;53.600;10.040;2023-02-12T00:14:00;47953.94;;;8.11
74043;BMP280;62384;53.600;10.040;2023-02-12T00:16:27;47856.06;;;8.06
74043;BMP280;62384;53.600;10.040;2023-02-12T00:18:54;47804.16;;;8.03
74043;BMP280;62384;53.600;10.040;2023-02-12T00:21:21;47753.63;;;8.02
74043;BMP280;62384;53.600;10.040;2023-02-12T00:23:47;47730.06;;;8.06
74043;BMP280;62384;53.600;10.040;2023-02-12T00:26:14;47711.38;;;8.05
74043;BMP280;62384;53.600;10.040;2023-02-12T00:28:39;47798.50;;;7.98
74043;BMP280;62384;53.600;10.040;2023-02-12T00:31:10;47654.75;;;7.95
74043;BMP280;62384;53.600;10.040;2023-02-12T00:33:36;47656.72;;;7.94
74043;BMP280;62384;53.600;10.040;2023-02-12T00:36:02;47634.66;;;7.89
74043;BMP280;62384;53.600;10.040;2023-02-12T00:38:28;47660.53;;;7.88
74043;BMP280;62384;53.600;10.040;2023-02-12T00:40:53;47627.88;;;7.94
74043;BMP280;62384;53.600;10.040;2023-02-12T00:43:18;47712.22;;;7.99
74043;BMP280;62384;53.600;10.040;2023-02-12T00:45:44;47863.75;;;7.98
74043;BMP280;62384;53.600;10.040;2023-02-12T00:48:10;47968.47;;;7.86
74043;BMP280;62384;53.600;10.040;2023-02-12T00:50:36;47904.91;;;7.73
74043;BMP280;62384;53.600;10.040;2023-02-12T00:53:01;47930.03;;;7.83
74043;BMP280;62384;53.600;10.040;2023-02-12T00:55:26;47821.97;;;7.90
74043;BMP280;62384;53.600;10.040;2023-02-12T00:57:52;47807.16;;;7.88
74043;BMP280;62384;53.600;10.040;2023-02-12T01:00:17;47807.16;;;7.88
74043;BMP280;62384;53.600;10.040;2023-02-12T01:02:42;47740.03;;;7.93
74043;BMP280;62384;53.600;10.040;2023-02-12T01:05:08;47822.63;;;7.91
74043;BMP280;62384;53.600;10.040;2023-02-12T01:07:33;47798.69;;;7.91
74043;BMP280;62384;53.600;10.040;2023-02-12T01:09:59;47816.38;;;7.90
74043;BMP280;62384;53.600;10.040;2023-02-12T01:12:24;47845.81;;;7.87
74043;BMP280;62384;53.600;10.040;2023-02-12T01:14:51;47745.09;;;7.85
74043;BMP280;62384;53.600;10.040;2023-02-12T01:17:16;47763.97;;;7.94
74043;BMP280;62384;53.600;10.040;2023-02-12T01:19:41;47785.47;;;7.87
74043;BMP280;62384;53.600;10.040;2023-02-12T01:22:06;47752.13;;;7.92
74043;BMP280;62384;53.600;10.040;2023-02-12T01:24:32;47780.31;;;7.91
74043;BMP280;62384;53.600;10.040;2023-02-12T01:26:57;47862.66;;;7.92
74043;BMP280;62384;53.600;10.040;2023-02-12T01:29:22;47853.44;;;7.90
74043;BMP280;62384;53.600;10.040;2023-02-12T01:31:48;47790.66;;;7.83
74043;BMP280;62384;53.600;10.040;2023-02-12T01:34:13;47703.06;;;7.81
74043;BMP280;62384;53.600;10.040;2023-02-12T01:36:38;47764.31;;;7.79
74043;BMP280;62384;53.600;10.040;2023-02-12T01:39:05;47882.22;;;7.86
74043;BMP280;62384;53.600;10.040;2023-02-12T01:41:33;47954.59;;;7.81
74043;BMP280;62384;53.600;10.040;2023-02-12T01:44:10;47954.16;;;7.76
74043;BMP280;62384;53.600;10.040;2023-02-12T01:46:36;47913.28;;;7.82
74043;BMP280;62384;53.600;10.040;2023-02-12T01:49:04;47940.28;;;7.71
74043;BMP280;62384;53.600;10.040;2023-02-12T01:51:30;47954.06;;;7.72
74043;BMP280;62384;53.600;10.040;2023-02-12T01:53:59;48152.06;;;7.70
74043;BMP280;62384;53.600;10.040;2023-02-12T01:56:25;48384.53;;;7.69
74043;BMP280;62384;53.600;10.040;2023-02-12T01:58:51;48371.97;;;7.66
74043;BMP280;62384;53.600;10.040;2023-02-12T02:01:23;48434.81;;;7.62
74043;BMP280;62384;53.600;10.040;2023-02-12T02:03:52;48452.84;;;7.61
74043;BMP280;62384;53.600;10.040;2023-02-12T02:06:26;48536.69;;;7.69
74043;BMP280;62384;53.600;10.040;2023-02-12T02:08:52;48864.00;;;7.68
74043;BMP280;62384;53.600;10.040;2023-02-12T02:11:18;48815.91;;;7.63
74043;BMP280;62384;53.600;10.040;2023-02-12T02:14:04;48610.25;;;7.61
74043;BMP280;62384;53.600;10.040;2023-02-12T02:17:06;48646.34;;;7.72
74043;BMP280;62384;53.600;10.040;2023-02-12T02:28:42;48701.66;;;7.68
74043;BMP280;62384;53.600;10.040;2023-02-12T02:31:25;48567.25;;;7.60
74043;BMP280;62384;53.600;10.040;2023-02-12T02:33:57;48453.53;;;7.62
74043;BMP280;62384;53.600;10.040;2023-02-12T02:36:36;48698.69;;;7.68
74043;BMP280;62384;53.600;10.040;2023-02-12T02:39:25;48610.97;;;7.74
74043;BMP280;62384;53.600;10.040;2023-02-12T02:42:05;48671.41;;;7.66
74043;BMP280;62384;53.600;10.040;2023-02-12T02:44:42;48584.97;;;7.70
74043;BMP280;62384;53.600;10.040;2023-02-12T02:47:12;48725.81;;;7.65
74043;BMP280;62384;53.600;10.040;2023-02-12T02:49:44;48523.56;;;7.69
74043;BMP280;62384;53.600;10.040;2023-02-12T02:52:15;48601.13;;;7.63
74043;BMP280;62384;53.600;10.040;2023-02-12T02:54:45;48623.97;;;7.70
74043;BMP280;62384;53.600;10.040;2023-02-12T02:57:15;48702.34;;;7.69
74043;BMP280;62384;53.600;10.040;2023-02-12T02:59:45;48797.00;;;7.66
74043;BMP280;62384;53.600;10.040;2023-02-12T03:02:16;48725.59;;;7.69
74043;BMP280;62384;53.600;10.040;2023-02-12T03:04:47;48567.66;;;7.53
74043;BMP280;62384;53.600;10.040;2023-02-12T03:07:25;48721.59;;;7.67
74043;BMP280;62384;53.600;10.040;2023-02-12T03:10:01;48801.63;;;7.57
74043;BMP280;62384;53.600;10.040;2023-02-12T03:12:36;48625.16;;;7.56
74043;BMP280;62384;53.600;10.040;2023-02-12T03:15:13;48644.81;;;7.66
74043;BMP280;62384;53.600;10.040;2023-02-12T03:17:44;48786.38;;;7.62
74043;BMP280;62384;53.600;10.040;2023-02-12T03:20:24;48688.41;;;7.64
74043;BMP280;62384;53.600;10.040;2023-02-12T03:22:54;48699.25;;;7.65
74043;BMP280;62384;53.600;10.040;2023-02-12T03:25:25;48569.22;;;7.70
74043;BMP280;62384;53.600;10.040;2023-02-12T03:28:01;48737.34;;;7.67
74043;BMP280;62384;53.600;10.040;2023-02-12T03:30:58;48666.34;;;7.63
74043;BMP280;62384;53.600;10.040;2023-02-12T03:33:38;48432.03;;;7.46
74043;BMP280;62384;53.600;10.040;2023-02-12T03:36:23;48285.41;;;7.54
74043;BMP280;62384;53.600;10.040;2023-02-12T03:38:53;48181.75;;;7.52
74043;BMP280;62384;53.600;10.040;2023-02-12T03:41:27;48142.53;;;7.56
74043;BMP280;62384;53.600;10.040;2023-02-12T03:47:01;48159.47;;;7.66
74043;BMP280;62384;53.600;10.040;2023-02-12T03:49:34;48214.00;;;7.69
74043;BMP280;62384;53.600;10.040;2023-02-12T03:52:03;48249.47;;;7.71
74043;BMP280;62384;53.600;10.040;2023-02-12T03:54:28;48301.16;;;7.77
74043;BMP280;62384;53.600;10.040;2023-02-12T03:57:00;48298.19;;;7.65
74043;BMP280;62384;53.600;10.040;2023-02-12T03:59:26;48146.94;;;7.74
74043;BMP280;62384;53.600;10.040;2023-02-12T04:01:53;47983.06;;;7.65
74043;BMP280;62384;53.600;10.040;2023-02-12T04:04:19;47931.63;;;7.66
74043;BMP280;62384;53.600;10.040;2023-02-12T04:06:46;47982.31;;;7.75
74043;BMP280;62384;53.600;10.040;2023-02-12T04:09:13;47951.44;;;7.72
74043;BMP280;62384;53.600;10.040;2023-02-12T04:14:53;47970.66;;;7.81
74043;BMP280;62384;53.600;10.040;2023-02-12T04:20:07;48049.94;;;7.78
74043;BMP280;62384;53.600;10.040;2023-02-12T04:22:49;47826.88;;;7.74
74043;BMP280;62384;53.600;10.040;2023-02-12T04:25:52;47836.88;;;7.81
74043;BMP280;62384;53.600;10.040;2023-02-12T04:31:12;47964.97;;;7.77
74043;BMP280;62384;53.600;10.040;2023-02-12T04:33:47;47841.78;;;7.81
74043;BMP280;62384;53.600;10.040;2023-02-12T04:36:24;47868.75;;;7.86
74043;BMP280;62384;53.600;10.040;2023-02-12T04:38:53;47796.16;;;7.79
74043;BMP280;62384;53.600;10.040;2023-02-12T04:41:21;47750.63;;;7.82
74043;BMP280;62384;53.600;10.040;2023-02-12T04:43:46;47676.00;;;7.72
74043;BMP280;62384;53.600;10.040;2023-02-12T04:46:12;47609.16;;;7.74
74043;BMP280;62384;53.600;10.040;2023-02-12T04:48:48;47747.75;;;7.70
74043;BMP280;62384;53.600;10.040;2023-02-12T04:51:14;47878.31;;;7.73
74043;BMP280;62384;53.600;10.040;2023-02-12T04:53:40;48191.44;;;7.70
74043;BMP280;62384;53.600;10.040;2023-02-12T04:56:05;48141.00;;;7.73
74043;BMP280;62384;53.600;10.040;2023-02-12T04:58:32;48235.22;;;7.77
74043;BMP280;62384;53.600;10.040;2023-02-12T05:00:58;48234.19;;;7.75
74043;BMP280;62384;53.600;10.040;2023-02-12T05:03:23;48341.19;;;7.78
74043;BMP280;62384;53.600;10.040;2023-02-12T05:05:48;48454.56;;;7.75
74043;BMP280;62384;53.600;10.040;2023-02-12T05:08:14;48493.13;;;7.70
74043;BMP280;62384;53.600;10.040;2023-02-12T05:10:39;48680.25;;;7.75
74043;BMP280;62384;53.600;10.040;2023-02-12T05:13:04;48752.13;;;7.77
74043;BMP280;62384;53.600;10.040;2023-02-12T05:15:30;48858.84;;;7.79
74043;BMP280;62384;53.600;10.040;2023-02-12T05:17:55;48740.06;;;7.78
74043;BMP280;62384;53.600;10.040;2023-02-12T05:20:20;48715.41;;;7.77
74043;BMP280;62384;53.600;10.040;2023-02-12T05:22:45;48681.09;;;7.80
74043;BMP280;62384;53.600;10.040;2023-02-12T05:25:14;48578.19;;;7.83
74043;BMP280;62384;53.600;10.040;2023-02-12T05:27:40;48477.41;;;7.82
74043;BMP280;62384;53.600;10.040;2023-02-12T05:30:05;48382.50;;;7.77
74043;BMP280;62384;53.600;10.040;2023-02-12T05:32:31;48328.41;;;7.90
74043;BMP280;62384;53.600;10.040;2023-02-12T05:34:56;48236.00;;;7.93
74043;BMP280;62384;53.600;10.040;2023-02-12T05:37:22;48159.44;;;7.89
74043;BMP280;62384;53.600;10.040;2023-02-12T05:39:50;47918.34;;;7.89
74043;BMP280;62384;53.600;10.040;2023-02-12T05:42:15;48094.03;;;7.97
74043;BMP280;62384;53.600;10.040;2023-02-12T05:44:40;47978.56;;;7.97
74043;BMP280;62384;53.600;10.040;2023-02-12T05:47:05;48012.19;;;8.04
74043;BMP280;62384;53.600;10.040;2023-02-12T05:49:30;47975.34;;;8.00
74043;BMP280;62384;53.600;10.040;2023-02-12T05:51:56;48019.03;;;8.02
74043;BMP280;62384;53.600;10.040;2023-02-12T05:54:21;47911.69;;;7.99
74043;BMP280;62384;53.600;10.040;2023-02-12T05:56:47;47963.25;;;8.01
74043;BMP280;62384;53.600;10.040;2023-02-12T05:59:16;48107.25;;;8.01
74043;BMP280;62384;53.600;10.040;2023-02-12T06:01:43;48006.25;;;8.03
74043;BMP280;62384;53.600;10.040;2023-02-12T06:04:20;47973.41;;;8.01
74043;BMP280;62384;53.600;10.040;2023-02-12T06:06:47;47911.78;;;8.03
74043;BMP280;62384;53.600;10.040;2023-02-12T06:09:13;47980.34;;;8.03
74043;BMP280;62384;53.600;10.040;2023-02-12T06:11:38;48004.91;;;8.01
74043;BMP280;62384;53.600;10.040;2023-02-12T06:14:05;47972.03;;;7.99
74043;BMP280;62384;53.600;10.040;2023-02-12T06:16:32;48050.19;;;8.02
74043;BMP280;62384;53.600;10.040;2023-02-12T06:18:57;47744.75;;;8.00
74043;BMP280;62384;53.600;10.040;2023-02-12T06:21:25;47969.41;;;7.99
74043;BMP280;62384;53.600;10.040;2023-02-12T06:23:51;48043.34;;;8.03
74043;BMP280;62384;53.600;10.040;2023-02-12T06:26:17;47787.94;;;7.94
74043;BMP280;62384;53.600;10.040;2023-02-12T06:28:43;47986.84;;;8.01
74043;BMP280;62384;53.600;10.040;2023-02-12T06:31:26;48008.88;;;8.03
74043;BMP280;62384;53.600;10.040;2023-02-12T06:33:52;48149.97;;;7.90
74043;BMP280;62384;53.600;10.040;2023-02-12T06:36:18;47985.59;;;8.03
74043;BMP280;62384;53.600;10.040;2023-02-12T06:38:44;48029.97;;;8.07
74043;BMP280;62384;53.600;10.040;2023-02-12T06:41:10;47932.00;;;8.14
74043;BMP280;62384;53.600;10.040;2023-02-12T06:43:36;47985.34;;;8.07
74043;BMP280;62384;53.600;10.040;2023-02-12T06:46:02;47909.66;;;8.12
74043;BMP280;62384;53.600;10.040;2023-02-12T06:48:28;47862.16;;;8.15
74043;BMP280;62384;53.600;10.040;2023-02-12T06:50:54;47898.47;;;8.11
74043;BMP280;62384;53.600;10.040;2023-02-12T06:53:19;47894.25;;;8.12
74043;BMP280;62384;53.600;10.040;2023-02-12T06:55:44;47932.44;;;8.02
74043;BMP280;62384;53.600;10.040;2023-02-12T06:58:10;47953.94;;;8.11
74043;BMP280;62384;53.600;10.040;2023-02-12T07:00:35;47910.25;;;8.08
74043;BMP280;62384;53.600;10.040;2023-02-12T07:03:01;47932.34;;;7.98
74043;BMP280;62384;53.600;10.040;2023-02-12T07:05:26;47939.88;;;7.98
74043;BMP280;62384;53.600;10.040;2023-02-12T07:07:51;47966.53;;;8.02
74043;BMP280;62384;53.600;10.040;2023-02-12T07:10:17;47971.22;;;8.05
74043;BMP280;62384;53.600;10.040;2023-02-12T07:12:43;47963.75;;;8.10
74043;BMP280;62384;53.600;10.040;2023-02-12T07:15:08;47972.38;;;7.99
74043;BMP280;62384;53.600;10.040;2023-02-12T07:17:34;48009.47;;;8.00
74043;BMP280;62384;53.600;10.040;2023-02-12T07:19:59;48022.59;;;8.00
74043;BMP280;62384;53.600;10.040;2023-02-12T07:22:24;48045.38;;;8.06
74043;BMP280;62384;53.600;10.040;2023-02-12T07:24:50;48030.13;;;7.99
74043;BMP280;62384;53.600;10.040;2023-02-12T07:27:16;47970.19;;;8.04
74043;BMP280;62384;53.600;10.040;2023-02-12T07:29:41;48033.72;;;8.13
74043;BMP280;62384;53.600;10.040;2023-02-12T07:32:06;48024.91;;;8.15
74043;BMP280;62384;53.600;10.040;2023-02-12T07:34:32;48018.81;;;8.22
74043;BMP280;62384;53.600;10.040;2023-02-12T07:36:57;47935.41;;;8.19
74043;BMP280;62384;53.600;10.040;2023-02-12T07:39:22;47920.66;;;8.20
74043;BMP280;62384;53.600;10.040;2023-02-12T07:41:47;47922.25;;;8.19
74043;BMP280;62384;53.600;10.040;2023-02-12T07:44:12;47913.81;;;8.22
74043;BMP280;62384;53.600;10.040;2023-02-12T07:46:41;47901.59;;;8.19
74043;BMP280;62384;53.600;10.040;2023-02-12T07:49:11;47931.25;;;8.24
74043;BMP280;62384;53.600;10.040;2023-02-12T07:51:37;47989.34;;;8.25
74043;BMP280;62384;53.600;10.040;2023-02-12T07:54:03;47927.38;;;8.26
74043;BMP280;62384;53.600;10.040;2023-02-12T07:56:31;47934.56;;;8.25
74043;BMP280;62384;53.600;10.040;2023-02-12T07:59:02;47979.28;;;8.29
74043;BMP280;62384;53.600;10.040;2023-02-12T08:01:33;47896.59;;;8.31
74043;BMP280;62384;53.600;10.040;2023-02-12T08:04:00;47895.84;;;8.26
74043;BMP280;62384;53.600;10.040;2023-02-12T08:06:28;47875.53;;;8.27
74043;BMP280;62384;53.600;10.040;2023-02-12T08:08:57;47928.69;;;8.28
74043;BMP280;62384;53.600;10.040;2023-02-12T08:11:23;47868.50;;;8.36
74043;BMP280;62384;53.600;10.040;2023-02-12T08:13:49;47874.69;;;8.34
74043;BMP280;62384;53.600;10.040;2023-02-12T08:16:18;47884.59;;;8.37
74043;BMP280;62384;53.600;10.040;2023-02-12T08:18:43;47853.81;;;8.42
74043;BMP280;62384;53.600;10.040;2023-02-12T08:21:11;47828.91;;;8.44
74043;BMP280;62384;53.600;10.040;2023-02-12T08:23:37;47829.41;;;8.52
74043;BMP280;62384;53.600;10.040;2023-02-12T08:26:07;47764.34;;;8.49
74043;BMP280;62384;53.600;10.040;2023-02-12T08:28:33;47826.88;;;8.56
74043;BMP280;62384;53.600;10.040;2023-02-12T08:31:00;47833.88;;;8.63
74043;BMP280;62384;53.600;10.040;2023-02-12T08:33:25;47956.16;;;8.69
74043;BMP280;62384;53.600;10.040;2023-02-12T08:36:00;48092.28;;;8.60
74043;BMP280;62384;53.600;10.040;2023-02-12T08:38:25;48090.66;;;8.62
74043;BMP280;62384;53.600;10.040;2023-02-12T08:40:51;48069.31;;;8.61
74043;BMP280;62384;53.600;10.040;2023-02-12T08:43:16;48004.66;;;8.63
74043;BMP280;62384;53.600;10.040;2023-02-12T08:45:41;48074.13;;;8.57
74043;BMP280;62384;53.600;10.040;2023-02-12T08:48:07;48092.44;;;8.53
74043;BMP280;62384;53.600;10.040;2023-02-12T08:50:33;48149.56;;;8.67
74043;BMP280;62384;53.600;10.040;2023-02-12T08:52:58;48253.28;;;8.77
74043;BMP280;62384;53.600;10.040;2023-02-12T08:55:23;48494.50;;;8.80
74043;BMP280;62384;53.600;10.040;2023-02-12T08:57:48;48624.13;;;8.85
74043;BMP280;62384;53.600;10.040;2023-02-12T09:00:14;48832.16;;;8.86
74043;BMP280;62384;53.600;10.040;2023-02-12T09:02:39;48884.66;;;8.93
74043;BMP280;62384;53.600;10.040;2023-02-12T09:05:04;48995.97;;;8.91
74043;BMP280;62384;53.600;10.040;2023-02-12T09:07:30;48950.06;;;8.93
74043;BMP280;62384;53.600;10.040;2023-02-12T09:09:55;49067.50;;;8.88
74043;BMP280;62384;53.600;10.040;2023-02-12T09:12:20;48997.34;;;9.00
74043;BMP280;62384;53.600;10.040;2023-02-12T09:14:45;49243.66;;;9.03
74043;BMP280;62384;53.600;10.040;2023-02-12T09:17:11;49326.75;;;9.01
74043;BMP280;62384;53.600;10.040;2023-02-12T09:19:36;49254.88;;;9.04
74043;BMP280;62384;53.600;10.040;2023-02-12T09:22:01;49418.47;;;9.08
74043;BMP280;62384;53.600;10.040;2023-02-12T09:24:26;49458.47;;;9.05
74043;BMP280;62384;53.600;10.040;2023-02-12T09:26:52;49648.56;;;9.06
74043;BMP280;62384;53.600;10.040;2023-02-12T09:29:17;49614.41;;;9.21
74043;BMP280;62384;53.600;10.040;2023-02-12T09:31:42;49653.25;;;9.02
74043;BMP280;62384;53.600;10.040;2023-02-12T09:34:07;49648.91;;;9.07
74043;BMP280;62384;53.600;10.040;2023-02-12T09:36:33;49331.84;;;9.12
74043;BMP280;62384;53.600;10.040;2023-02-12T09:39:00;49559.50;;;9.14
74043;BMP280;62384;53.600;10.040;2023-02-12T09:44:27;49966.50;;;9.24
74043;BMP280;62384;53.600;10.040;2023-02-12T09:47:16;49968.78;;;9.24
74043;BMP280;62384;53.600;10.040;2023-02-12T09:50:14;50120.09;;;9.29
74043;BMP280;62384;53.600;10.040;2023-02-12T09:52:41;50263.41;;;9.38
74043;BMP280;62384;53.600;10.040;2023-02-12T09:55:13;50128.53;;;9.34
74043;BMP280;62384;53.600;10.040;2023-02-12T09:57:40;49720.00;;;9.22
74043;BMP280;62384;53.600;10.040;2023-02-12T10:02:38;50062.72;;;9.15
74043;BMP280;62384;53.600;10.040;2023-02-12T10:05:13;49477.06;;;9.17
74043;BMP280;62384;53.600;10.040;2023-02-12T10:13:03;48857.41;;;9.03
74043;BMP280;62384;53.600;10.040;2023-02-12T10:15:34;48728.00;;;9.06
74043;BMP280;62384;53.600;10.040;2023-02-12T10:21:02;48885.22;;;9.09
74043;BMP280;62384;53.600;10.040;2023-02-12T10:23:34;48933.13;;;9.06
74043;BMP280;62384;53.600;10.040;2023-02-12T10:26:11;48896.34;;;8.99
74043;BMP280;62384;53.600;10.040;2023-02-12T10:28:40;48877.25;;;8.98
74043;BMP280;62384;53.600;10.040;2023-02-12T10:31:28;48777.00;;;8.97
74043;BMP280;62384;53.600;10.040;2023-02-12T10:33:55;48632.38;;;8.97
74043;BMP280;62384;53.600;10.040;2023-02-12T10:36:38;48815.47;;;9.07
74043;BMP280;62384;53.600;10.040;2023-02-12T10:39:24;48606.19;;;8.90
74043;BMP280;62384;53.600;10.040;2023-02-12T10:42:16;48283.53;;;8.91
74043;BMP280;62384;53.600;10.040;2023-02-12T10:44:42;48256.00;;;8.93
74043;BMP280;62384;53.600;10.040;2023-02-12T10:47:15;48258.38;;;8.96
74043;BMP280;62384;53.600;10.040;2023-02-12T10:49:42;48294.22;;;9.10
74043;BMP280;62384;53.600;10.040;2023-02-12T10:52:38;48477.63;;;9.21
74043;BMP280;62384;53.600;10.040;2023-02-12T10:55:35;48765.56;;;9.19
74043;BMP280;62384;53.600;10.040;2023-02-12T10:58:04;48767.38;;;9.14
74043;BMP280;62384;53.600;10.040;2023-02-12T11:00:41;48578.56;;;9.11
74043;BMP280;62384;53.600;10.040;2023-02-12T11:05:36;48540.13;;;9.01
74043;BMP280;62384;53.600;10.040;2023-02-12T11:08:02;48470.53;;;9.03
74043;BMP280;62384;53.600;10.040;2023-02-12T11:10:32;48514.31;;;9.05
74043;BMP280;62384;53.600;10.040;2023-02-12T11:13:00;48301.66;;;9.06
74043;BMP280;62384;53.600;10.040;2023-02-12T11:15:35;48492.47;;;9.12
74043;BMP280;62384;53.600;10.040;2023-02-12T11:18:03;48563.03;;;9.19
74043;BMP280;62384;53.600;10.040;2023-02-12T11:20:33;48759.19;;;9.25
74043;BMP280;62384;53.600;10.040;2023-02-12T11:23:05;48864.41;;;9.25
74043;BMP280;62384;53.600;10.040;2023-02-12T11:25:35;48693.16;;;9.17
74043;BMP280;62384;53.600;10.040;2023-02-12T11:28:14;48556.84;;;9.10
74043;BMP280;62384;53.600;10.040;2023-02-12T11:31:01;48565.41;;;9.11
74043;BMP280;62384;53.600;10.040;2023-02-12T11:33:32;48329.44;;;9.12
74043;BMP280;62384;53.600;10.040;2023-02-12T11:36:15;48655.66;;;9.16
74043;BMP280;62384;53.600;10.040;2023-02-12T11:38:51;48664.78;;;9.14
74043;BMP280;62384;53.600;10.040;2023-02-12T11:41:33;48708.59;;;9.16
74043;BMP280;62384;53.600;10.040;2023-02-12T11:44:02;48687.44;;;9.12
74043;BMP280;62384;53.600;10.040;2023-02-12T11:46:33;48743.97;;;9.22
74043;BMP280;62384;53.600;10.040;2023-02-12T11:48:58;49014.75;;;9.18
74043;BMP280;62384;53.600;10.040;2023-02-12T11:51:27;48883.38;;;9.22
74043;BMP280;62384;53.600;10.040;2023-02-12T11:53:58;48975.09;;;9.21
74043;BMP280;62384;53.600;10.040;2023-02-12T11:56:39;48844.13;;;9.18
74043;BMP280;62384;53.600;10.040;2023-02-12T11:59:17;48813.53;;;9.08
74043;BMP280;62384;53.600;10.040;2023-02-12T12:01:45;48580.38;;;9.06
74043;BMP280;62384;53.600;10.040;2023-02-12T12:04:13;48409.38;;;9.02
74043;BMP280;62384;53.600;10.040;2023-02-12T12:06:44;48404.00;;;9.09
74043;BMP280;62384;53.600;10.040;2023-02-12T12:09:24;48423.41;;;9.11
74043;BMP280;62384;53.600;10.040;2023-02-12T12:14:38;48326.00;;;9.18
74043;BMP280;62384;53.600;10.040;2023-02-12T12:17:46;48166.81;;;9.01
74043;BMP280;62384;53.600;10.040;2023-02-12T12:21:01;48181.06;;;9.06
74043;BMP280;62384;53.600;10.040;2023-02-12T12:23:34;48333.34;;;8.98
74043;BMP280;62384;53.600;10.040;2023-02-12T12:26:07;48145.97;;;9.09
74043;BMP280;62384;53.600;10.040;2023-02-12T12:28:50;48092.03;;;9.07
74043;BMP280;62384;53.600;10.040;2023-02-12T12:31:30;48092.09;;;9.11
74043;BMP280;62384;53.600;10.040;2023-02-12T12:34:03;48067.25;;;9.01
74043;BMP280;62384;53.600;10.040;2023-02-12T12:47:26;48615.22;;;9.37
74043;BMP280;62384;53.600;10.040;2023-02-12T12:50:22;48355.78;;;9.39
74043;BMP280;62384;53.600;10.040;2023-02-12T12:53:13;48437.47;;;9.31
74043;BMP280;62384;53.600;10.040;2023-02-12T12:58:24;47957.13;;;9.49
74043;BMP280;62384;53.600;10.040;2023-02-12T13:01:30;48185.22;;;9.43
74043;BMP280;62384;53.600;10.040;2023-02-12T13:04:22;48252.94;;;9.43
74043;BMP280;62384;53.600;10.040;2023-02-12T13:07:15;48405.88;;;9.43
74043;BMP280;62384;53.600;10.040;2023-02-12T13:10:05;48401.53;;;9.52
74043;BMP280;62384;53.600;10.040;2023-02-12T13:15:30;49044.28;;;9.61
74043;BMP280;62384;53.600;10.040;2023-02-12T13:18:10;49186.81;;;9.54
74043;BMP280;62384;53.600;10.040;2023-02-12T13:26:12;48776.50;;;9.62
74043;BMP280;62384;53.600;10.040;2023-02-12T13:28:43;48962.69;;;9.61
74043;BMP280;62384;53.600;10.040;2023-02-12T13:31:16;49140.81;;;9.63
74043;BMP280;62384;53.600;10.040;2023-02-12T13:33:59;49133.13;;;9.60
74043;BMP280;62384;53.600;10.040;2023-02-12T13:36:26;49380.38;;;9.63
74043;BMP280;62384;53.600;10.040;2023-02-12T13:38:59;49316.53;;;9.47
74043;BMP280;62384;53.600;10.040;2023-02-12T13:41:28;48969.31;;;9.43
74043;BMP280;62384;53.600;10.040;2023-02-12T13:49:54;48891.22;;;9.49
74043;BMP280;62384;53.600;10.040;2023-02-12T13:53:13;49052.78;;;9.50
74043;BMP280;62384;53.600;10.040;2023-02-12T14:01:11;49989.59;;;9.57
74043;BMP280;62384;53.600;10.040;2023-02-12T14:03:38;50301.16;;;9.66
74043;BMP280;62384;53.600;10.040;2023-02-12T14:06:14;50537.59;;;9.72
74043;BMP280;62384;53.600;10.040;2023-02-12T14:08:52;50646.03;;;9.58
74043;BMP280;62384;53.600;10.040;2023-02-12T14:11:51;50397.88;;;9.65
74043;BMP280;62384;53.600;10.040;2023-02-12T14:14:26;50530.03;;;9.62
74043;BMP280;62384;53.600;10.040;2023-02-12T14:16:52;50536.41;;;9.63
74043;BMP280;62384;53.600;10.040;2023-02-12T14:19:37;50594.44;;;9.49
74043;BMP280;62384;53.600;10.040;2023-02-12T14:22:13;49982.00;;;9.50
74043;BMP280;62384;53.600;10.040;2023-02-12T14:25:01;50214.72;;;9.63
74043;BMP280;62384;53.600;10.040;2023-02-12T14:27:53;49839.69;;;9.54
74043;BMP280;62384;53.600;10.040;2023-02-12T14:30:34;49809.50;;;9.56
74043;BMP280;62384;53.600;10.040;2023-02-12T14:33:10;49933.81;;;9.60
74043;BMP280;62384;53.600;10.040;2023-02-12T14:35:42;49751.53;;;9.48
74043;BMP280;62384;53.600;10.040;2023-02-12T14:40:46;49519.91;;;9.56
74043;BMP280;62384;53.600;10.040;2023-02-12T14:46:41;49934.06;;;9.46
74043;BMP280;62384;53.600;10.040;2023-02-12T14:49:03;49848.75;;;9.44
74043;BMP280;62384;53.600;10.040;2023-02-12T14:51:40;49685.91;;;9.45
74043;BMP280;62384;53.600;10.040;2023-02-12T14:54:39;50074.44;;;9.43
74043;BMP280;62384;53.600;10.040;2023-02-12T14:57:24;50499.63;;;9.49
74043;BMP280;62384;53.600;10.040;2023-02-12T14:59:53;50594.91;;;9.46
74043;BMP280;62384;53.600;10.040;2023-02-12T15:02:31;50972.53;;;9.47
74043;BMP280;62384;53.600;10.040;2023-02-12T15:05:04;51101.88;;;9.51
74043;BMP280;62384;53.600;10.040;2023-02-12T15:07:41;50998.97;;;9.43
74043;BMP280;62384;53.600;10.040;2023-02-12T15:10:14;51110.31;;;9.45
74043;BMP280;62384;53.600;10.040;2023-02-12T15:13:01;51369.66;;;9.39
74043;BMP280;62384;53.600;10.040;2023-02-12T15:15:36;51011.13;;;9.38
74043;BMP280;62384;53.600;10.040;2023-02-12T15:18:16;51276.00;;;9.37
74043;BMP280;62384;53.600;10.040;2023-02-12T15:21:15;51291.66;;;9.44
74043;BMP280;62384;53.600;10.040;2023-02-12T15:23:44;52001.75;;;9.43
74043;BMP280;62384;53.600;10.040;2023-02-12T15:26:18;51965.22;;;9.47
74043;BMP280;62384;53.600;10.040;2023-02-12T15:28:50;51996.44;;;9.50
74043;BMP280;62384;53.600;10.040;2023-02-12T15:31:19;52575.34;;;9.45
74043;BMP280;62384;53.600;10.040;2023-02-12T15:33:48;52500.41;;;9.43
74043;BMP280;62384;53.600;10.040;2023-02-12T15:36:16;52791.81;;;9.49
74043;BMP280;62384;53.600;10.040;2023-02-12T15:38:42;52871.56;;;9.39
74043;BMP280;62384;53.600;10.040;2023-02-12T15:41:08;53240.91;;;9.43
74043;BMP280;62384;53.600;10.040;2023-02-12T15:43:47;53001.84;;;9.45
74043;BMP280;62384;53.600;10.040;2023-02-12T15:46:16;53046.66;;;9.45
74043;BMP280;62384;53.600;10.040;2023-02-12T15:48:42;53353.25;;;9.25
74043;BMP280;62384;53.600;10.040;2023-02-12T15:53:51;53083.84;;;9.34